sensor_id;sensor_type;location;lat;lon;timestamp;P1;durP1;ratioP1;P2;durP2;ratioP2
11703;SDS011;5908;51.354;7.458;2023-04-29T00:01:03;32.83;;;22.20;;
11703;SDS011;5908;51.354;7.458;2023-04-29T00:03:31;32.87;;;22.90;;
11703;SDS011;5908;51.354;7.458;2023-04-29T00:05:58;34.23;;;23.20;;
11703;SDS011;5908;51.354;7.458;2023-04-29T00:08:26;36.00;;;23.87;;
11703;SDS011;5908;51.354;7.458;2023-04-29T00:10:53;32.20;;;22.30;;
11703;SDS011;5908;51.354;7.458;2023-04-29T00:13:20;33.40;;;22.90;;
11703;SDS011;5908;51.354;7.458;2023-04-29T00:15:47;40.83;;;26.83;;
11703;SDS011;5908;51.354;7.458;2023-04-29T00:18:14;38.93;;;26.10;;
11703;SDS011;5908;51.354;7.458;2023-04-29T00:20:42;37.50;;;25.17;;
11703;SDS011;5908;51.354;7.458;2023-04-29T00:23:09;37.13;;;24.93;;
11703;SDS011;5908;51.354;7.458;2023-04-29T00:25:36;40.83;;;25.33;;
11703;SDS011;5908;51.354;7.458;2023-04-29T00:28:03;43.23;;;25.93;;
11703;SDS011;5908;51.354;7.458;2023-04-29T00:30:30;38.07;;;24.83;;
11703;SDS011;5908;51.354;7.458;2023-04-29T00:32:57;49.90;;;34.20;;
11703;SDS011;5908;51.354;7.458;2023-04-29T00:35:24;40.67;;;25.87;;
11703;SDS011;5908;51.354;7.458;2023-04-29T00:37:52;37.63;;;24.07;;
11703;SDS011;5908;51.354;7.458;2023-04-29T00:40:19;37.73;;;23.63;;
11703;SDS011;5908;51.354;7.458;2023-04-29T00:42:46;43.27;;;27.30;;
11703;SDS011;5908;51.354;7.458;2023-04-29T00:45:13;41.87;;;26.67;;
11703;SDS011;5908;51.354;7.458;2023-04-29T00:47:40;41.63;;;26.77;;
11703;SDS011;5908;51.354;7.458;2023-04-29T00:50:07;40.60;;;26.87;;
11703;SDS011;5908;51.354;7.458;2023-04-29T00:52:34;41.97;;;27.07;;
11703;SDS011;5908;51.354;7.458;2023-04-29T00:55:05;42.03;;;28.10;;
11703;SDS011;5908;51.354;7.458;2023-04-29T00:57:33;43.07;;;26.73;;
11703;SDS011;5908;51.354;7.458;2023-04-29T01:00:00;42.87;;;27.60;;
11703;SDS011;5908;51.354;7.458;2023-04-29T01:02:28;40.60;;;26.83;;
11703;SDS011;5908;51.354;7.458;2023-04-29T01:04:55;42.53;;;27.07;;
11703;SDS011;5908;51.354;7.458;2023-04-29T01:07:23;42.47;;;28.60;;
11703;SDS011;5908;51.354;7.458;2023-04-29T01:10:00;43.03;;;26.90;;
11703;SDS011;5908;51.354;7.458;2023-04-29T01:12:37;42.57;;;27.07;;
11703;SDS011;5908;51.354;7.458;2023-04-29T01:15:08;40.77;;;27.17;;
11703;SDS011;5908;51.354;7.458;2023-04-29T01:17:43;44.07;;;28.10;;
11703;SDS011;5908;51.354;7.458;2023-04-29T01:20:15;42.83;;;27.90;;
11703;SDS011;5908;51.354;7.458;2023-04-29T01:22:43;43.53;;;29.53;;
11703;SDS011;5908;51.354;7.458;2023-04-29T01:25:12;47.67;;;30.53;;
11703;SDS011;5908;51.354;7.458;2023-04-29T01:27:41;43.20;;;29.93;;
11703;SDS011;5908;51.354;7.458;2023-04-29T01:30:16;47.60;;;31.97;;
11703;SDS011;5908;51.354;7.458;2023-04-29T01:32:55;48.40;;;30.90;;
11703;SDS011;5908;51.354;7.458;2023-04-29T01:35:30;48.00;;;32.33;;
11703;SDS011;5908;51.354;7.458;2023-04-29T01:38:08;48.67;;;31.50;;
11703;SDS011;5908;51.354;7.458;2023-04-29T01:40:47;47.23;;;32.50;;
11703;SDS011;5908;51.354;7.458;2023-04-29T01:43:21;51.83;;;32.37;;
11703;SDS011;5908;51.354;7.458;2023-04-29T01:45:50;51.23;;;33.70;;
11703;SDS011;5908;51.354;7.458;2023-04-29T01:48:20;49.37;;;32.03;;
11703;SDS011;5908;51.354;7.458;2023-04-29T01:50:47;57.83;;;35.97;;
11703;SDS011;5908;51.354;7.458;2023-04-29T01:53:14;55.40;;;34.97;;
11703;SDS011;5908;51.354;7.458;2023-04-29T01:55:41;55.77;;;36.63;;
11703;SDS011;5908;51.354;7.458;2023-04-29T01:58:10;56.43;;;37.00;;
11703;SDS011;5908;51.354;7.458;2023-04-29T02:00:37;56.73;;;37.10;;
11703;SDS011;5908;51.354;7.458;2023-04-29T02:03:04;62.57;;;38.00;;
11703;SDS011;5908;51.354;7.458;2023-04-29T02:05:30;66.30;;;40.60;;
11703;SDS011;5908;51.354;7.458;2023-04-29T02:07:58;65.53;;;38.87;;
11703;SDS011;5908;51.354;7.458;2023-04-29T02:10:25;62.50;;;38.27;;
11703;SDS011;5908;51.354;7.458;2023-04-29T02:12:52;64.97;;;39.37;;
11703;SDS011;5908;51.354;7.458;2023-04-29T02:15:20;65.37;;;40.23;;
11703;SDS011;5908;51.354;7.458;2023-04-29T02:17:47;66.87;;;38.63;;
11703;SDS011;5908;51.354;7.458;2023-04-29T02:20:14;57.47;;;34.13;;
11703;SDS011;5908;51.354;7.458;2023-04-29T02:22:41;57.00;;;33.63;;
11703;SDS011;5908;51.354;7.458;2023-04-29T02:25:08;56.57;;;33.40;;
11703;SDS011;5908;51.354;7.458;2023-04-29T02:27:35;53.30;;;32.23;;
11703;SDS011;5908;51.354;7.458;2023-04-29T02:30:03;52.83;;;30.67;;
11703;SDS011;5908;51.354;7.458;2023-04-29T02:32:32;60.43;;;34.30;;
11703;SDS011;5908;51.354;7.458;2023-04-29T02:34:59;58.23;;;32.67;;
11703;SDS011;5908;51.354;7.458;2023-04-29T02:37:26;60.53;;;34.00;;
11703;SDS011;5908;51.354;7.458;2023-04-29T02:39:53;60.20;;;33.90;;
11703;SDS011;5908;51.354;7.458;2023-04-29T02:42:19;63.30;;;36.93;;
11703;SDS011;5908;51.354;7.458;2023-04-29T02:44:46;59.40;;;33.97;;
11703;SDS011;5908;51.354;7.458;2023-04-29T02:47:13;72.63;;;38.50;;
11703;SDS011;5908;51.354;7.458;2023-04-29T02:49:41;68.73;;;39.97;;
11703;SDS011;5908;51.354;7.458;2023-04-29T02:52:08;72.50;;;40.47;;
11703;SDS011;5908;51.354;7.458;2023-04-29T02:54:35;64.60;;;38.30;;
11703;SDS011;5908;51.354;7.458;2023-04-29T02:57:02;67.90;;;38.97;;
11703;SDS011;5908;51.354;7.458;2023-04-29T02:59:29;80.07;;;41.47;;
11703;SDS011;5908;51.354;7.458;2023-04-29T03:01:55;85.33;;;43.40;;
11703;SDS011;5908;51.354;7.458;2023-04-29T03:04:22;76.47;;;39.77;;
11703;SDS011;5908;51.354;7.458;2023-04-29T03:06:50;74.40;;;40.00;;
11703;SDS011;5908;51.354;7.458;2023-04-29T03:09:17;71.10;;;37.53;;
11703;SDS011;5908;51.354;7.458;2023-04-29T03:11:45;62.17;;;31.90;;
11703;SDS011;5908;51.354;7.458;2023-04-29T03:14:12;58.97;;;29.83;;
11703;SDS011;5908;51.354;7.458;2023-04-29T03:16:39;73.00;;;33.37;;
11703;SDS011;5908;51.354;7.458;2023-04-29T03:19:06;77.43;;;33.43;;
11703;SDS011;5908;51.354;7.458;2023-04-29T03:21:34;81.33;;;35.53;;
11703;SDS011;5908;51.354;7.458;2023-04-29T03:24:02;76.73;;;33.13;;
11703;SDS011;5908;51.354;7.458;2023-04-29T03:26:29;69.10;;;32.93;;
11703;SDS011;5908;51.354;7.458;2023-04-29T03:28:56;78.50;;;36.30;;
11703;SDS011;5908;51.354;7.458;2023-04-29T03:31:23;80.43;;;36.33;;
11703;SDS011;5908;51.354;7.458;2023-04-29T03:33:51;72.97;;;34.93;;
11703;SDS011;5908;51.354;7.458;2023-04-29T03:36:18;73.50;;;34.47;;
11703;SDS011;5908;51.354;7.458;2023-04-29T03:38:45;78.33;;;35.70;;
11703;SDS011;5908;51.354;7.458;2023-04-29T03:41:13;88.00;;;39.17;;
11703;SDS011;5908;51.354;7.458;2023-04-29T03:43:40;79.13;;;36.83;;
11703;SDS011;5908;51.354;7.458;2023-04-29T03:46:08;77.50;;;35.13;;
11703;SDS011;5908;51.354;7.458;2023-04-29T03:48:35;76.30;;;34.87;;
11703;SDS011;5908;51.354;7.458;2023-04-29T03:51:02;73.20;;;35.47;;
11703;SDS011;5908;51.354;7.458;2023-04-29T03:53:29;69.53;;;34.20;;
11703;SDS011;5908;51.354;7.458;2023-04-29T03:55:56;65.23;;;32.37;;
11703;SDS011;5908;51.354;7.458;2023-04-29T03:58:25;67.17;;;33.40;;
11703;SDS011;5908;51.354;7.458;2023-04-29T04:00:52;55.50;;;28.23;;
11703;SDS011;5908;51.354;7.458;2023-04-29T04:03:20;57.83;;;30.20;;
11703;SDS011;5908;51.354;7.458;2023-04-29T04:05:49;54.20;;;28.23;;
11703;SDS011;5908;51.354;7.458;2023-04-29T04:08:16;52.70;;;28.43;;
11703;SDS011;5908;51.354;7.458;2023-04-29T04:10:43;47.73;;;25.03;;
11703;SDS011;5908;51.354;7.458;2023-04-29T04:13:09;48.17;;;25.20;;
11703;SDS011;5908;51.354;7.458;2023-04-29T04:15:38;51.87;;;26.97;;
11703;SDS011;5908;51.354;7.458;2023-04-29T04:18:04;44.60;;;24.30;;
11703;SDS011;5908;51.354;7.458;2023-04-29T04:20:31;43.33;;;24.13;;
11703;SDS011;5908;51.354;7.458;2023-04-29T04:22:58;42.10;;;24.03;;
11703;SDS011;5908;51.354;7.458;2023-04-29T04:25:25;41.27;;;23.50;;
11703;SDS011;5908;51.354;7.458;2023-04-29T04:27:52;41.73;;;23.10;;
11703;SDS011;5908;51.354;7.458;2023-04-29T04:30:19;45.57;;;25.17;;
11703;SDS011;5908;51.354;7.458;2023-04-29T04:32:47;41.70;;;23.53;;
11703;SDS011;5908;51.354;7.458;2023-04-29T04:35:14;44.23;;;24.43;;
11703;SDS011;5908;51.354;7.458;2023-04-29T04:37:41;47.20;;;25.63;;
11703;SDS011;5908;51.354;7.458;2023-04-29T04:40:08;44.40;;;23.90;;
11703;SDS011;5908;51.354;7.458;2023-04-29T04:42:36;42.97;;;24.17;;
11703;SDS011;5908;51.354;7.458;2023-04-29T04:45:03;44.37;;;25.27;;
11703;SDS011;5908;51.354;7.458;2023-04-29T04:47:30;41.77;;;24.47;;
11703;SDS011;5908;51.354;7.458;2023-04-29T04:49:58;42.57;;;24.13;;
11703;SDS011;5908;51.354;7.458;2023-04-29T04:52:25;40.70;;;23.30;;
11703;SDS011;5908;51.354;7.458;2023-04-29T04:54:52;44.67;;;24.67;;
11703;SDS011;5908;51.354;7.458;2023-04-29T04:57:19;33.17;;;21.40;;
11703;SDS011;5908;51.354;7.458;2023-04-29T04:59:46;34.20;;;20.97;;
11703;SDS011;5908;51.354;7.458;2023-04-29T05:02:12;36.43;;;22.03;;
11703;SDS011;5908;51.354;7.458;2023-04-29T05:04:39;35.27;;;21.90;;
11703;SDS011;5908;51.354;7.458;2023-04-29T05:07:07;33.53;;;20.57;;
11703;SDS011;5908;51.354;7.458;2023-04-29T05:09:34;33.70;;;20.53;;
11703;SDS011;5908;51.354;7.458;2023-04-29T05:12:01;30.90;;;20.53;;
11703;SDS011;5908;51.354;7.458;2023-04-29T05:14:28;34.17;;;20.77;;
11703;SDS011;5908;51.354;7.458;2023-04-29T05:16:57;33.73;;;20.03;;
11703;SDS011;5908;51.354;7.458;2023-04-29T05:19:24;29.27;;;18.93;;
11703;SDS011;5908;51.354;7.458;2023-04-29T05:21:51;32.23;;;20.00;;
11703;SDS011;5908;51.354;7.458;2023-04-29T05:24:19;34.17;;;19.97;;
11703;SDS011;5908;51.354;7.458;2023-04-29T05:26:45;33.27;;;20.23;;
11703;SDS011;5908;51.354;7.458;2023-04-29T05:29:15;31.97;;;19.30;;
11703;SDS011;5908;51.354;7.458;2023-04-29T05:31:42;30.63;;;19.47;;
11703;SDS011;5908;51.354;7.458;2023-04-29T05:34:09;30.83;;;19.13;;
11703;SDS011;5908;51.354;7.458;2023-04-29T05:36:36;32.83;;;19.47;;
11703;SDS011;5908;51.354;7.458;2023-04-29T05:39:02;32.80;;;20.30;;
11703;SDS011;5908;51.354;7.458;2023-04-29T05:41:31;31.17;;;18.53;;
11703;SDS011;5908;51.354;7.458;2023-04-29T05:43:57;34.83;;;20.30;;
11703;SDS011;5908;51.354;7.458;2023-04-29T05:46:24;33.07;;;20.30;;
11703;SDS011;5908;51.354;7.458;2023-04-29T05:48:51;33.40;;;20.87;;
11703;SDS011;5908;51.354;7.458;2023-04-29T05:51:18;35.73;;;23.00;;
11703;SDS011;5908;51.354;7.458;2023-04-29T05:53:45;35.37;;;22.23;;
11703;SDS011;5908;51.354;7.458;2023-04-29T05:56:12;33.73;;;22.07;;
11703;SDS011;5908;51.354;7.458;2023-04-29T05:58:40;35.87;;;23.03;;
11703;SDS011;5908;51.354;7.458;2023-04-29T06:01:07;37.37;;;23.47;;
11703;SDS011;5908;51.354;7.458;2023-04-29T06:03:33;37.67;;;23.77;;
11703;SDS011;5908;51.354;7.458;2023-04-29T06:06:01;33.00;;;22.13;;
11703;SDS011;5908;51.354;7.458;2023-04-29T06:08:28;36.23;;;23.23;;
11703;SDS011;5908;51.354;7.458;2023-04-29T06:10:55;35.97;;;23.63;;
11703;SDS011;5908;51.354;7.458;2023-04-29T06:13:22;36.83;;;23.60;;
11703;SDS011;5908;51.354;7.458;2023-04-29T06:15:50;38.63;;;22.67;;
11703;SDS011;5908;51.354;7.458;2023-04-29T06:18:17;39.07;;;23.37;;
11703;SDS011;5908;51.354;7.458;2023-04-29T06:20:44;36.00;;;23.13;;
11703;SDS011;5908;51.354;7.458;2023-04-29T06:23:11;33.93;;;22.93;;
11703;SDS011;5908;51.354;7.458;2023-04-29T06:25:38;36.00;;;23.33;;
11703;SDS011;5908;51.354;7.458;2023-04-29T06:28:05;36.43;;;23.43;;
11703;SDS011;5908;51.354;7.458;2023-04-29T06:30:32;38.07;;;24.37;;
11703;SDS011;5908;51.354;7.458;2023-04-29T06:33:00;35.60;;;23.87;;
11703;SDS011;5908;51.354;7.458;2023-04-29T06:35:27;35.90;;;23.70;;
11703;SDS011;5908;51.354;7.458;2023-04-29T06:37:54;33.53;;;22.40;;
11703;SDS011;5908;51.354;7.458;2023-04-29T06:40:21;38.50;;;23.07;;
11703;SDS011;5908;51.354;7.458;2023-04-29T06:42:47;33.43;;;22.40;;
11703;SDS011;5908;51.354;7.458;2023-04-29T06:45:16;29.03;;;20.70;;
11703;SDS011;5908;51.354;7.458;2023-04-29T06:47:43;33.00;;;22.50;;
11703;SDS011;5908;51.354;7.458;2023-04-29T06:50:12;32.40;;;22.03;;
11703;SDS011;5908;51.354;7.458;2023-04-29T06:52:38;32.97;;;22.60;;
11703;SDS011;5908;51.354;7.458;2023-04-29T06:55:05;31.73;;;21.63;;
11703;SDS011;5908;51.354;7.458;2023-04-29T06:57:33;30.40;;;21.43;;
11703;SDS011;5908;51.354;7.458;2023-04-29T07:00:00;30.40;;;21.20;;
11703;SDS011;5908;51.354;7.458;2023-04-29T07:02:28;28.30;;;21.40;;
11703;SDS011;5908;51.354;7.458;2023-04-29T07:04:55;28.23;;;19.23;;
11703;SDS011;5908;51.354;7.458;2023-04-29T07:07:23;24.77;;;18.13;;
11703;SDS011;5908;51.354;7.458;2023-04-29T07:09:50;27.60;;;19.70;;
11703;SDS011;5908;51.354;7.458;2023-04-29T07:12:17;27.00;;;18.90;;
11703;SDS011;5908;51.354;7.458;2023-04-29T07:14:44;25.33;;;18.10;;
11703;SDS011;5908;51.354;7.458;2023-04-29T07:17:11;26.77;;;17.73;;
11703;SDS011;5908;51.354;7.458;2023-04-29T07:19:38;27.33;;;19.03;;
11703;SDS011;5908;51.354;7.458;2023-04-29T07:22:04;26.63;;;19.17;;
11703;SDS011;5908;51.354;7.458;2023-04-29T07:24:33;26.67;;;18.13;;
11703;SDS011;5908;51.354;7.458;2023-04-29T07:26:59;32.80;;;20.77;;
11703;SDS011;5908;51.354;7.458;2023-04-29T07:29:26;27.27;;;19.13;;
11703;SDS011;5908;51.354;7.458;2023-04-29T07:31:53;30.70;;;21.03;;
11703;SDS011;5908;51.354;7.458;2023-04-29T07:34:20;31.23;;;22.23;;
11703;SDS011;5908;51.354;7.458;2023-04-29T07:36:47;29.70;;;21.40;;
11703;SDS011;5908;51.354;7.458;2023-04-29T07:39:13;28.77;;;20.70;;
11703;SDS011;5908;51.354;7.458;2023-04-29T07:41:42;29.70;;;21.43;;
11703;SDS011;5908;51.354;7.458;2023-04-29T07:44:09;31.67;;;22.03;;
11703;SDS011;5908;51.354;7.458;2023-04-29T07:46:36;31.43;;;21.57;;
11703;SDS011;5908;51.354;7.458;2023-04-29T07:49:03;41.83;;;30.30;;
11703;SDS011;5908;51.354;7.458;2023-04-29T07:51:30;48.20;;;33.03;;
11703;SDS011;5908;51.354;7.458;2023-04-29T07:53:57;40.93;;;29.87;;
11703;SDS011;5908;51.354;7.458;2023-04-29T07:56:24;40.90;;;29.50;;
11703;SDS011;5908;51.354;7.458;2023-04-29T07:58:52;58.60;;;39.97;;
11703;SDS011;5908;51.354;7.458;2023-04-29T08:01:19;42.00;;;29.23;;
11703;SDS011;5908;51.354;7.458;2023-04-29T08:03:46;42.20;;;29.73;;
11703;SDS011;5908;51.354;7.458;2023-04-29T08:06:13;42.03;;;27.73;;
11703;SDS011;5908;51.354;7.458;2023-04-29T08:08:40;46.53;;;29.40;;
11703;SDS011;5908;51.354;7.458;2023-04-29T08:11:06;59.13;;;38.83;;
11703;SDS011;5908;51.354;7.458;2023-04-29T08:13:33;48.70;;;32.57;;
11703;SDS011;5908;51.354;7.458;2023-04-29T08:16:01;37.83;;;26.03;;
11703;SDS011;5908;51.354;7.458;2023-04-29T08:18:28;35.70;;;23.47;;
11703;SDS011;5908;51.354;7.458;2023-04-29T08:20:55;37.60;;;24.40;;
11703;SDS011;5908;51.354;7.458;2023-04-29T08:23:21;37.83;;;25.07;;
11703;SDS011;5908;51.354;7.458;2023-04-29T08:25:48;44.90;;;29.37;;
11703;SDS011;5908;51.354;7.458;2023-04-29T08:28:16;35.57;;;24.00;;
11703;SDS011;5908;51.354;7.458;2023-04-29T08:30:43;37.63;;;26.37;;
11703;SDS011;5908;51.354;7.458;2023-04-29T08:33:12;40.40;;;26.27;;
11703;SDS011;5908;51.354;7.458;2023-04-29T08:35:39;38.07;;;26.23;;
11703;SDS011;5908;51.354;7.458;2023-04-29T08:38:07;39.97;;;29.47;;
11703;SDS011;5908;51.354;7.458;2023-04-29T08:40:34;39.57;;;26.00;;
11703;SDS011;5908;51.354;7.458;2023-04-29T08:43:02;33.90;;;23.67;;
11703;SDS011;5908;51.354;7.458;2023-04-29T08:45:29;38.43;;;24.57;;
11703;SDS011;5908;51.354;7.458;2023-04-29T08:47:58;37.90;;;24.07;;
11703;SDS011;5908;51.354;7.458;2023-04-29T08:50:28;37.07;;;23.63;;
11703;SDS011;5908;51.354;7.458;2023-04-29T08:52:56;34.40;;;23.03;;
11703;SDS011;5908;51.354;7.458;2023-04-29T08:55:23;32.47;;;21.77;;
11703;SDS011;5908;51.354;7.458;2023-04-29T08:57:50;34.53;;;22.37;;
11703;SDS011;5908;51.354;7.458;2023-04-29T09:00:20;33.33;;;22.17;;
11703;SDS011;5908;51.354;7.458;2023-04-29T09:02:49;43.83;;;27.77;;
11703;SDS011;5908;51.354;7.458;2023-04-29T09:05:18;38.93;;;25.17;;
11703;SDS011;5908;51.354;7.458;2023-04-29T09:07:47;38.90;;;24.13;;
11703;SDS011;5908;51.354;7.458;2023-04-29T09:10:15;42.00;;;25.97;;
11703;SDS011;5908;51.354;7.458;2023-04-29T09:12:43;40.17;;;25.23;;
11703;SDS011;5908;51.354;7.458;2023-04-29T09:15:10;42.20;;;26.87;;
11703;SDS011;5908;51.354;7.458;2023-04-29T09:17:37;43.53;;;26.97;;
11703;SDS011;5908;51.354;7.458;2023-04-29T09:22:53;47.30;;;27.87;;
11703;SDS011;5908;51.354;7.458;2023-04-29T09:25:21;44.50;;;28.17;;
11703;SDS011;5908;51.354;7.458;2023-04-29T09:27:48;49.77;;;29.60;;
11703;SDS011;5908;51.354;7.458;2023-04-29T09:30:15;47.63;;;29.57;;
11703;SDS011;5908;51.354;7.458;2023-04-29T09:32:43;45.67;;;27.17;;
11703;SDS011;5908;51.354;7.458;2023-04-29T09:35:20;49.87;;;29.70;;
11703;SDS011;5908;51.354;7.458;2023-04-29T09:37:48;53.07;;;30.37;;
11703;SDS011;5908;51.354;7.458;2023-04-29T09:40:27;58.43;;;31.10;;
11703;SDS011;5908;51.354;7.458;2023-04-29T09:42:55;50.60;;;29.17;;
11703;SDS011;5908;51.354;7.458;2023-04-29T09:45:32;53.80;;;30.97;;
11703;SDS011;5908;51.354;7.458;2023-04-29T09:48:01;55.13;;;32.00;;
11703;SDS011;5908;51.354;7.458;2023-04-29T09:50:28;54.13;;;30.90;;
11703;SDS011;5908;51.354;7.458;2023-04-29T09:52:55;55.93;;;31.33;;
11703;SDS011;5908;51.354;7.458;2023-04-29T09:55:22;58.30;;;32.77;;
11703;SDS011;5908;51.354;7.458;2023-04-29T09:57:51;55.47;;;33.00;;
11703;SDS011;5908;51.354;7.458;2023-04-29T10:00:18;54.90;;;32.17;;
11703;SDS011;5908;51.354;7.458;2023-04-29T10:02:46;59.23;;;33.43;;
11703;SDS011;5908;51.354;7.458;2023-04-29T10:05:14;54.37;;;31.50;;
11703;SDS011;5908;51.354;7.458;2023-04-29T10:07:41;59.87;;;33.07;;
11703;SDS011;5908;51.354;7.458;2023-04-29T10:10:08;59.87;;;34.10;;
11703;SDS011;5908;51.354;7.458;2023-04-29T10:12:36;59.87;;;33.37;;
11703;SDS011;5908;51.354;7.458;2023-04-29T10:15:08;59.00;;;33.23;;
11703;SDS011;5908;51.354;7.458;2023-04-29T10:17:45;54.50;;;32.67;;
11703;SDS011;5908;51.354;7.458;2023-04-29T10:20:14;57.70;;;32.97;;
11703;SDS011;5908;51.354;7.458;2023-04-29T10:22:48;56.07;;;32.93;;
11703;SDS011;5908;51.354;7.458;2023-04-29T10:25:16;55.77;;;32.53;;
11703;SDS011;5908;51.354;7.458;2023-04-29T10:27:44;60.20;;;32.93;;
11703;SDS011;5908;51.354;7.458;2023-04-29T10:30:14;54.20;;;32.43;;
11703;SDS011;5908;51.354;7.458;2023-04-29T10:32:42;58.87;;;33.60;;
11703;SDS011;5908;51.354;7.458;2023-04-29T10:35:10;55.90;;;33.53;;
11703;SDS011;5908;51.354;7.458;2023-04-29T10:37:38;55.80;;;32.27;;
11703;SDS011;5908;51.354;7.458;2023-04-29T10:40:07;55.23;;;32.10;;
11703;SDS011;5908;51.354;7.458;2023-04-29T10:42:41;54.23;;;31.93;;
11703;SDS011;5908;51.354;7.458;2023-04-29T10:45:18;49.37;;;30.63;;
11703;SDS011;5908;51.354;7.458;2023-04-29T10:50:40;53.37;;;32.67;;
11703;SDS011;5908;51.354;7.458;2023-04-29T10:53:26;48.87;;;31.03;;
11703;SDS011;5908;51.354;7.458;2023-04-29T10:55:56;50.58;;;32.95;;
11703;SDS011;5908;51.354;7.458;2023-04-29T10:58:34;51.45;;;32.20;;
11703;SDS011;5908;51.354;7.458;2023-04-29T11:01:13;47.13;;;29.67;;
11703;SDS011;5908;51.354;7.458;2023-04-29T11:03:44;43.67;;;28.27;;
11703;SDS011;5908;51.354;7.458;2023-04-29T11:06:19;45.53;;;28.90;;
11703;SDS011;5908;51.354;7.458;2023-04-29T11:08:56;41.05;;;28.08;;
11703;SDS011;5908;51.354;7.458;2023-04-29T11:11:26;44.25;;;29.35;;
11703;SDS011;5908;51.354;7.458;2023-04-29T11:14:07;44.60;;;32.03;;
11703;SDS011;5908;51.354;7.458;2023-04-29T11:16:36;43.88;;;28.90;;
11703;SDS011;5908;51.354;7.458;2023-04-29T11:19:04;45.42;;;30.67;;
11703;SDS011;5908;51.354;7.458;2023-04-29T11:21:32;48.13;;;31.08;;
11703;SDS011;5908;51.354;7.458;2023-04-29T11:24:00;43.25;;;29.77;;
11703;SDS011;5908;51.354;7.458;2023-04-29T11:26:27;41.78;;;29.08;;
11703;SDS011;5908;51.354;7.458;2023-04-29T11:28:55;39.22;;;28.48;;
11703;SDS011;5908;51.354;7.458;2023-04-29T11:31:25;49.15;;;35.05;;
11703;SDS011;5908;51.354;7.458;2023-04-29T11:33:55;40.55;;;29.08;;
11703;SDS011;5908;51.354;7.458;2023-04-29T11:36:22;44.85;;;33.78;;
11703;SDS011;5908;51.354;7.458;2023-04-29T11:38:49;42.47;;;30.17;;
11703;SDS011;5908;51.354;7.458;2023-04-29T11:41:16;47.38;;;31.55;;
11703;SDS011;5908;51.354;7.458;2023-04-29T11:43:44;63.53;;;46.45;;
11703;SDS011;5908;51.354;7.458;2023-04-29T11:46:12;37.85;;;27.90;;
11703;SDS011;5908;51.354;7.458;2023-04-29T11:48:44;47.13;;;32.97;;
11703;SDS011;5908;51.354;7.458;2023-04-29T11:51:14;40.08;;;29.40;;
11703;SDS011;5908;51.354;7.458;2023-04-29T11:53:41;34.42;;;26.75;;
11703;SDS011;5908;51.354;7.458;2023-04-29T11:56:08;33.78;;;26.77;;
11703;SDS011;5908;51.354;7.458;2023-04-29T11:58:35;33.05;;;26.17;;
11703;SDS011;5908;51.354;7.458;2023-04-29T12:01:02;35.83;;;26.50;;
11703;SDS011;5908;51.354;7.458;2023-04-29T12:03:30;37.50;;;29.20;;
11703;SDS011;5908;51.354;7.458;2023-04-29T12:05:57;41.00;;;32.00;;
11703;SDS011;5908;51.354;7.458;2023-04-29T12:08:26;44.30;;;33.38;;
11703;SDS011;5908;51.354;7.458;2023-04-29T12:10:54;40.75;;;30.25;;
11703;SDS011;5908;51.354;7.458;2023-04-29T12:13:23;40.20;;;29.80;;
11703;SDS011;5908;51.354;7.458;2023-04-29T12:15:51;36.80;;;29.10;;
11703;SDS011;5908;51.354;7.458;2023-04-29T12:18:18;36.20;;;28.23;;
11703;SDS011;5908;51.354;7.458;2023-04-29T12:20:47;34.40;;;27.05;;
11703;SDS011;5908;51.354;7.458;2023-04-29T12:23:16;34.70;;;25.83;;
11703;SDS011;5908;51.354;7.458;2023-04-29T12:25:48;34.30;;;25.27;;
11703;SDS011;5908;51.354;7.458;2023-04-29T12:28:15;36.30;;;28.38;;
11703;SDS011;5908;51.354;7.458;2023-04-29T12:30:43;29.25;;;22.95;;
11703;SDS011;5908;51.354;7.458;2023-04-29T12:33:11;30.67;;;23.75;;
11703;SDS011;5908;51.354;7.458;2023-04-29T12:35:43;31.90;;;23.67;;
11703;SDS011;5908;51.354;7.458;2023-04-29T12:38:10;32.25;;;24.23;;
11703;SDS011;5908;51.354;7.458;2023-04-29T12:40:40;33.97;;;25.67;;
11703;SDS011;5908;51.354;7.458;2023-04-29T12:43:09;33.47;;;25.08;;
11703;SDS011;5908;51.354;7.458;2023-04-29T12:45:37;30.52;;;23.40;;
11703;SDS011;5908;51.354;7.458;2023-04-29T12:48:04;32.92;;;23.45;;
11703;SDS011;5908;51.354;7.458;2023-04-29T12:50:32;29.05;;;22.90;;
11703;SDS011;5908;51.354;7.458;2023-04-29T12:53:00;26.55;;;21.05;;
11703;SDS011;5908;51.354;7.458;2023-04-29T12:55:27;28.52;;;22.45;;
11703;SDS011;5908;51.354;7.458;2023-04-29T12:57:54;28.30;;;20.65;;
11703;SDS011;5908;51.354;7.458;2023-04-29T13:00:22;27.15;;;20.90;;
11703;SDS011;5908;51.354;7.458;2023-04-29T13:02:49;25.17;;;20.00;;
11703;SDS011;5908;51.354;7.458;2023-04-29T13:05:16;25.00;;;19.48;;
11703;SDS011;5908;51.354;7.458;2023-04-29T13:07:43;26.17;;;19.63;;
11703;SDS011;5908;51.354;7.458;2023-04-29T13:10:10;21.75;;;18.60;;
11703;SDS011;5908;51.354;7.458;2023-04-29T13:12:38;23.50;;;19.00;;
11703;SDS011;5908;51.354;7.458;2023-04-29T13:15:05;23.88;;;18.20;;
11703;SDS011;5908;51.354;7.458;2023-04-29T13:17:35;24.15;;;19.00;;
11703;SDS011;5908;51.354;7.458;2023-04-29T13:20:03;21.45;;;17.75;;
11703;SDS011;5908;51.354;7.458;2023-04-29T13:22:30;24.15;;;18.98;;
11703;SDS011;5908;51.354;7.458;2023-04-29T13:24:57;23.45;;;18.60;;
11703;SDS011;5908;51.354;7.458;2023-04-29T13:27:24;26.33;;;18.02;;
11703;SDS011;5908;51.354;7.458;2023-04-29T13:29:51;20.40;;;16.80;;
11703;SDS011;5908;51.354;7.458;2023-04-29T13:32:18;27.17;;;18.95;;
11703;SDS011;5908;51.354;7.458;2023-04-29T13:34:48;20.42;;;17.00;;
11703;SDS011;5908;51.354;7.458;2023-04-29T13:37:15;19.95;;;16.15;;
11703;SDS011;5908;51.354;7.458;2023-04-29T13:39:43;20.73;;;17.70;;
11703;SDS011;5908;51.354;7.458;2023-04-29T13:42:10;18.05;;;16.00;;
11703;SDS011;5908;51.354;7.458;2023-04-29T13:44:37;19.35;;;15.55;;
11703;SDS011;5908;51.354;7.458;2023-04-29T13:47:08;17.88;;;15.98;;
11703;SDS011;5908;51.354;7.458;2023-04-29T13:49:36;18.58;;;15.82;;
11703;SDS011;5908;51.354;7.458;2023-04-29T13:52:04;18.33;;;15.88;;
11703;SDS011;5908;51.354;7.458;2023-04-29T13:54:31;26.58;;;21.25;;
11703;SDS011;5908;51.354;7.458;2023-04-29T13:56:58;36.33;;;29.02;;
11703;SDS011;5908;51.354;7.458;2023-04-29T13:59:28;23.30;;;19.58;;
11703;SDS011;5908;51.354;7.458;2023-04-29T14:01:54;20.20;;;17.08;;
11703;SDS011;5908;51.354;7.458;2023-04-29T14:04:21;16.45;;;14.60;;
11703;SDS011;5908;51.354;7.458;2023-04-29T14:06:48;15.38;;;13.65;;
11703;SDS011;5908;51.354;7.458;2023-04-29T14:09:16;19.02;;;14.52;;
11703;SDS011;5908;51.354;7.458;2023-04-29T14:11:44;25.08;;;21.85;;
11703;SDS011;5908;51.354;7.458;2023-04-29T14:14:10;25.58;;;20.80;;
11703;SDS011;5908;51.354;7.458;2023-04-29T14:16:37;20.77;;;17.63;;
11703;SDS011;5908;51.354;7.458;2023-04-29T14:19:04;31.40;;;26.08;;
11703;SDS011;5908;51.354;7.458;2023-04-29T14:21:32;15.50;;;13.30;;
11703;SDS011;5908;51.354;7.458;2023-04-29T14:23:59;15.20;;;13.70;;
11703;SDS011;5908;51.354;7.458;2023-04-29T14:26:28;15.88;;;14.18;;
11703;SDS011;5908;51.354;7.458;2023-04-29T14:28:56;15.52;;;13.73;;
11703;SDS011;5908;51.354;7.458;2023-04-29T14:31:24;15.77;;;14.18;;
11703;SDS011;5908;51.354;7.458;2023-04-29T14:33:51;15.98;;;13.63;;
11703;SDS011;5908;51.354;7.458;2023-04-29T14:36:18;22.25;;;18.85;;
11703;SDS011;5908;51.354;7.458;2023-04-29T14:38:46;14.85;;;12.95;;
11703;SDS011;5908;51.354;7.458;2023-04-29T14:41:15;15.05;;;13.45;;
11703;SDS011;5908;51.354;7.458;2023-04-29T14:43:43;14.88;;;13.27;;